< < Back
Terminal Aerodrome Forecast


Current Version              Previous Versions:   1  2  3  4  5  6  7  8  9  

Terminal Aerodrome Forecast

562
FTUS42 KFFC 250500
TAFMCN
TAF
KMCN 250525Z 2506/2606 24004KT P6SM FEW015 SCT060
     FM250900 00000KT 5SM BR SCT010
     FM251400 23004KT P6SM SCT025
     FM251600 26006KT P6SM SCT045 PROB30 2519/2523 5SM -TSRA
      BKN035CB
     FM260000 25005KT P6SM FEW050=



Latest METAR

808
SAUS80 KWBC 251600 RRA
MTRMCN
METAR KMCN 251553Z VRB03KT 10SM BKN023 BKN030 OVC085 29/24 A3005 RMK AO2
SLP170 T02890239


USA.gov is the U.S. government's official web portal to all federal, state and local government web resources and services.